Time;durP1;ratioP1;P1;durP2;ratioP2;P2;SDS_P1;SDS_P2;PMS_P1;PMS_P2;Temp;Humidity;BMP_temperature;BMP_pressure;BME280_temperature;BME280_humidity;BME280_pressure;Samples;Min_cycle;Max_cycle;Signal;HPM_P1;HPM_P2
2022/07/08 00:02:23;;;;;;;;;;;;;;;20.85;100.00;100595.80;1706097;82;20173;-86
2022/07/08 00:04:49;;;;;;;;;;;;;;;20.77;100.00;100596.22;1722577;83;20144;-86
2022/07/08 00:07:16;;;;;;;;;;;;;;;20.72;100.00;100597.22;1726322;83;21152;-85
2022/07/08 00:09:44;;;;;;;;;;;;;;;20.68;100.00;100600.41;1726561;82;20175;-85
2022/07/08 00:12:11;;;;;;;;;;;;;;;20.64;100.00;100597.31;1727009;82;20468;-86
2022/07/08 00:14:38;;;;;;;;;;;;;;;20.60;100.00;100592.88;1726304;82;20144;-85
2022/07/08 00:17:04;;;;;;;;;;;;;;;20.57;100.00;100593.27;1726428;83;20195;-87
2022/07/08 00:19:31;;;;;;;;;;;;;;;20.55;100.00;100591.30;1726257;82;21136;-86
2022/07/08 00:21:59;;;;;;;;;;;;;;;20.54;100.00;100592.30;1726605;82;20144;-86
2022/07/08 00:24:26;;;;;;;;;;;;;;;20.51;100.00;100595.30;1726920;82;20168;-85
2022/07/08 00:26:53;;;;;;;;;;;;;;;20.46;100.00;100602.95;1723700;82;20149;-85
2022/07/08 00:29:20;;;;;;;;;;;;;;;20.44;100.00;100599.19;1727134;81;20169;-87
2022/07/08 00:31:48;;;;;;;;;;;;;;;20.44;100.00;100595.22;1732709;82;20135;-85
2022/07/08 00:34:15;;;;;;;;;;;;;;;20.45;100.00;100603.47;1732421;82;20442;-86
2022/07/08 00:36:42;;;;;;;;;;;;;;;20.45;100.00;100606.12;1732510;82;20183;-86
2022/07/08 00:39:09;;;;;;;;;;;;;;;20.47;100.00;100610.70;1732842;83;20136;-85
2022/07/08 00:41:35;;;;;;;;;;;;;;;20.51;100.00;100610.35;1725800;82;20564;-86
2022/07/08 00:44:04;;;;;;;;;;;;;;;20.49;100.00;100608.70;1714795;82;21123;-85
2022/07/08 00:46:32;;;;;;;;;;;;;;;20.46;100.00;100606.92;1705591;82;20176;-85
2022/07/08 00:49:00;;;;;;;;;;;;;;;20.38;100.00;100609.65;1716132;82;20154;-85
2022/07/08 00:51:28;;;;;;;;;;;;;;;20.27;100.00;100606.95;1716022;82;20400;-86
2022/07/08 00:53:55;;;;;;;;;;;;;;;20.22;100.00;100606.67;1732692;80;20481;-85
2022/07/08 00:56:23;;;;;;;;;;;;;;;20.18;100.00;100607.53;1739934;81;20165;-85
2022/07/08 00:58:50;;;;;;;;;;;;;;;20.16;100.00;100606.88;1740841;82;20156;-86
2022/07/08 01:01:17;;;;;;;;;;;;;;;20.14;100.00;100609.72;1740581;81;20170;-86
2022/07/08 01:03:45;;;;;;;;;;;;;;;20.14;100.00;100610.20;1741318;81;20158;-85
2022/07/08 01:06:12;;;;;;;;;;;;;;;20.16;100.00;100610.34;1739947;81;20162;-85
2022/07/08 01:08:40;;;;;;;;;;;;;;;20.18;100.00;100610.17;1740328;82;21711;-85
2022/07/08 01:11:08;;;;;;;;;;;;;;;20.14;100.00;100604.91;1740256;81;20149;-85
2022/07/08 01:13:35;;;;;;;;;;;;;;;20.08;100.00;100595.06;1747749;80;20204;-86
2022/07/08 01:16:02;;;;;;;;;;;;;;;19.98;100.00;100595.31;1753202;80;20162;-85
2022/07/08 01:18:31;;;;;;;;;;;;;;;19.95;100.00;100595.66;1753416;80;20153;-85
2022/07/08 01:20:59;;;;;;;;;;;;;;;19.94;100.00;100594.02;1753202;82;21164;-85
2022/07/08 01:23:26;;;;;;;;;;;;;;;19.96;100.00;100601.27;1753338;82;20439;-85
2022/07/08 01:25:54;;;;;;;;;;;;;;;19.99;100.00;100601.73;1719150;83;20181;-85
2022/07/08 01:28:21;;;;;;;;;;;;;;;20.00;100.00;100603.86;1719574;83;20146;-85
2022/07/08 01:30:48;;;;;;;;;;;;;;;19.92;100.00;100602.61;1719519;83;20149;-84
2022/07/08 01:33:15;;;;;;;;;;;;;;;19.81;100.00;100602.02;1719596;83;21224;-85
2022/07/08 01:35:43;;;;;;;;;;;;;;;19.68;100.00;100605.72;1719418;83;20137;-85
2022/07/08 01:38:09;;;;;;;;;;;;;;;19.60;100.00;100603.13;1719751;83;20216;-85
2022/07/08 01:40:37;;;;;;;;;;;;;;;19.50;100.00;100592.32;1719552;83;20150;-85
2022/07/08 01:43:06;;;;;;;;;;;;;;;19.41;100.00;100601.28;1719484;83;20153;-86
2022/07/08 01:45:33;;;;;;;;;;;;;;;19.35;100.00;100603.27;1719875;83;21167;-85
2022/07/08 01:48:00;;;;;;;;;;;;;;;19.26;100.00;100600.38;1719776;83;20196;-85
2022/07/08 01:50:27;;;;;;;;;;;;;;;19.19;100.00;100605.00;1719692;83;20415;-88
2022/07/08 01:52:54;;;;;;;;;;;;;;;19.14;100.00;100603.90;1720000;83;20193;-87
2022/07/08 01:55:20;;;;;;;;;;;;;;;19.11;100.00;100610.32;1719692;83;20248;-85
2022/07/08 01:57:47;;;;;;;;;;;;;;;19.09;100.00;100609.70;1719989;83;21144;-85
2022/07/08 02:00:14;;;;;;;;;;;;;;;19.10;100.00;100606.06;1719863;83;20196;-85
2022/07/08 02:02:41;;;;;;;;;;;;;;;19.10;100.00;100605.22;1719960;83;20855;-84
2022/07/08 02:05:09;;;;;;;;;;;;;;;19.07;100.00;100606.39;1719881;83;20208;-85
2022/07/08 02:07:37;;;;;;;;;;;;;;;18.98;100.00;100607.41;1719764;83;20184;-91
2022/07/08 02:10:05;;;;;;;;;;;;;;;18.86;100.00;100610.41;1719713;83;21142;-91
2022/07/08 02:12:32;;;;;;;;;;;;;;;18.80;100.00;100611.58;1718083;83;20153;-86
2022/07/08 02:15:02;;;;;;;;;;;;;;;18.73;100.00;100614.90;1711760;84;20170;-86
2022/07/08 02:17:32;;;;;;;;;;;;;;;18.68;100.00;100626.43;1711812;84;20174;-87
2022/07/08 02:19:59;;;;;;;;;;;;;;;18.62;100.00;100617.06;1711740;84;20146;-85
2022/07/08 02:22:27;;;;;;;;;;;;;;;18.58;100.00;100625.81;1711839;82;21091;-85
2022/07/08 02:24:53;;;;;;;;;;;;;;;18.56;100.00;100628.59;1711760;84;20138;-85
2022/07/08 02:27:21;;;;;;;;;;;;;;;18.55;100.00;100625.62;1711865;82;20181;-85
2022/07/08 02:29:47;;;;;;;;;;;;;;;18.53;100.00;100623.67;1711916;84;20149;-85
2022/07/08 02:32:14;;;;;;;;;;;;;;;18.53;100.00;100627.63;1711868;82;20209;-85
2022/07/08 02:34:47;;;;;;;;;;;;;;;18.51;100.00;100625.65;1711910;84;21217;-86
2022/07/08 02:37:14;;;;;;;;;;;;;;;18.47;100.00;100628.27;1711562;84;20146;-85
2022/07/08 02:39:40;;;;;;;;;;;;;;;18.48;100.00;100637.83;1711621;82;20241;-85
2022/07/08 02:42:09;;;;;;;;;;;;;;;18.50;100.00;100639.01;1712152;84;20133;-85
2022/07/08 02:44:36;;;;;;;;;;;;;;;18.51;100.00;100641.47;1711611;84;20150;-85
2022/07/08 02:47:07;;;;;;;;;;;;;;;18.52;100.00;100651.03;1711764;84;21871;-86
2022/07/08 02:49:34;;;;;;;;;;;;;;;18.53;100.00;100655.31;1711933;82;20146;-85
2022/07/08 02:52:01;;;;;;;;;;;;;;;18.52;100.00;100673.44;1711883;84;20161;-85
2022/07/08 02:54:28;;;;;;;;;;;;;;;18.47;100.00;100659.10;1711805;84;20178;-85
2022/07/08 02:56:55;;;;;;;;;;;;;;;18.41;100.00;100665.86;1711730;82;20181;-85
2022/07/08 02:59:21;;;;;;;;;;;;;;;18.37;100.00;100668.00;1712010;84;21188;-85
2022/07/08 03:01:48;;;;;;;;;;;;;;;18.34;100.00;100658.28;1711575;82;20150;-84
2022/07/08 03:04:15;;;;;;;;;;;;;;;18.36;100.00;100662.91;1712034;82;20157;-85
2022/07/08 03:06:42;;;;;;;;;;;;;;;18.39;100.00;100673.09;1711803;82;20431;-85
2022/07/08 03:09:08;;;;;;;;;;;;;;;18.37;100.00;100671.95;1711976;84;20177;-85
2022/07/08 03:11:35;;;;;;;;;;;;;;;18.39;100.00;100659.92;1711664;84;20861;-85
2022/07/08 03:14:02;;;;;;;;;;;;;;;18.43;100.00;100665.20;1716917;82;20145;-84
2022/07/08 03:16:29;;;;;;;;;;;;;;;18.47;100.00;100662.55;1723632;82;20160;-85
2022/07/08 03:18:57;;;;;;;;;;;;;;;18.53;100.00;100668.98;1721915;81;20140;-85
2022/07/08 03:21:23;;;;;;;;;;;;;;;18.55;100.00;100661.22;1719963;83;20144;-85
2022/07/08 03:23:50;;;;;;;;;;;;;;;18.63;100.00;100658.27;1719482;81;21148;-84
2022/07/08 03:26:17;;;;;;;;;;;;;;;18.70;100.00;100660.56;1719755;83;20135;-87
2022/07/08 03:28:43;;;;;;;;;;;;;;;18.77;100.00;100656.27;1719404;81;20151;-85
2022/07/08 03:31:12;;;;;;;;;;;;;;;18.85;100.00;100656.25;1719764;83;20140;-85
2022/07/08 03:33:39;;;;;;;;;;;;;;;18.93;100.00;100658.56;1719537;83;20144;-85
2022/07/08 03:36:06;;;;;;;;;;;;;;;19.00;100.00;100655.56;1719740;83;21246;-85
2022/07/08 03:38:35;;;;;;;;;;;;;;;19.07;100.00;100659.17;1719632;83;20147;-84
2022/07/08 03:41:20;;;;;;;;;;;;;;;19.18;100.00;100660.61;1732659;82;20146;-85
2022/07/08 03:43:52;;;;;;;;;;;;;;;19.27;100.00;100659.59;1734636;82;20263;-84
2022/07/08 03:46:19;;;;;;;;;;;;;;;19.40;100.00;100655.08;1719693;83;20192;-88
2022/07/08 03:48:47;;;;;;;;;;;;;;;19.55;100.00;100657.79;1745526;82;21802;-86
2022/07/08 03:51:14;;;;;;;;;;;;;;;19.68;100.00;100662.51;1749061;82;20186;-85
2022/07/08 03:53:41;;;;;;;;;;;;;;;19.79;100.00;100666.09;1749395;81;20612;-86
2022/07/08 03:56:08;;;;;;;;;;;;;;;19.94;100.00;100670.64;1749453;81;20291;-85
2022/07/08 03:58:35;;;;;;;;;;;;;;;20.07;100.00;100672.19;1721370;82;20184;-85
2022/07/08 04:01:03;;;;;;;;;;;;;;;20.18;100.00;100670.46;1719833;83;20692;-85
2022/07/08 04:03:30;;;;;;;;;;;;;;;20.30;100.00;100670.05;1719600;83;20172;-85
2022/07/08 04:05:57;;;;;;;;;;;;;;;20.39;100.00;100668.95;1719893;83;20149;-85
2022/07/08 04:08:27;;;;;;;;;;;;;;;20.48;100.00;100670.53;1701726;83;38382;-85
2022/07/08 04:10:54;;;;;;;;;;;;;;;20.58;100.00;100673.42;1719341;83;20501;-84
2022/07/08 04:13:23;;;;;;;;;;;;;;;20.69;100.00;100671.67;1717923;82;21165;-86
2022/07/08 04:15:54;;;;;;;;;;;;;;;20.84;100.00;100670.89;1709350;83;20130;-84
2022/07/08 04:18:21;;;;;;;;;;;;;;;20.98;100.00;100672.72;1709606;83;20204;-85
2022/07/08 04:20:48;;;;;;;;;;;;;;;21.10;100.00;100673.91;1709412;84;20443;-85
2022/07/08 04:23:16;;;;;;;;;;;;;;;21.22;100.00;100674.75;1709539;83;20149;-84
2022/07/08 04:25:43;;;;;;;;;;;;;;;21.34;100.00;100674.63;1704233;82;21725;-84
2022/07/08 04:28:10;;;;;;;;;;;;;;;21.46;100.00;100672.80;1706563;82;20158;-85
2022/07/08 04:30:36;;;;;;;;;;;;;;;21.62;100.00;100677.11;1709878;83;20427;-85
2022/07/08 04:33:05;;;;;;;;;;;;;;;21.77;100.00;100677.04;1709516;83;20130;-84
2022/07/08 04:35:32;;;;;;;;;;;;;;;21.90;100.00;100671.89;1709647;83;20134;-85
2022/07/08 04:37:59;;;;;;;;;;;;;;;22.05;100.00;100672.65;1709578;84;21906;-86
2022/07/08 04:40:26;;;;;;;;;;;;;;;22.19;100.00;100670.11;1709839;83;20188;-85
2022/07/08 04:42:52;;;;;;;;;;;;;;;22.33;100.00;100674.50;1709687;83;20141;-85
2022/07/08 04:45:19;;;;;;;;;;;;;;;22.50;100.00;100668.95;1713116;82;20156;-85
2022/07/08 04:47:46;;;;;;;;;;;;;;;22.68;100.00;100670.62;1714676;82;20145;-85
2022/07/08 04:50:13;;;;;;;;;;;;;;;22.83;100.00;100669.68;1725249;82;21130;-85
2022/07/08 04:52:41;;;;;;;;;;;;;;;22.97;100.00;100671.39;1715446;82;20150;-86
2022/07/08 04:55:08;;;;;;;;;;;;;;;23.14;100.00;100672.39;1726851;82;20443;-85
2022/07/08 04:57:35;;;;;;;;;;;;;;;23.31;100.00;100674.25;1712206;82;20187;-88
2022/07/08 05:00:03;;;;;;;;;;;;;;;23.44;100.00;100677.44;1712711;82;20605;-85
2022/07/08 05:02:30;;;;;;;;;;;;;;;23.60;100.00;100669.11;1709652;83;21157;-85
2022/07/08 05:04:56;;;;;;;;;;;;;;;23.76;100.00;100679.90;1709534;84;20142;-86
2022/07/08 05:07:23;;;;;;;;;;;;;;;23.91;100.00;100677.08;1709638;84;20169;-85
2022/07/08 05:09:50;;;;;;;;;;;;;;;24.05;97.85;100676.59;1709625;83;20154;-86
2022/07/08 05:12:19;;;;;;;;;;;;;;;24.19;92.50;100678.75;1710293;83;20176;-86
2022/07/08 05:14:45;;;;;;;;;;;;;;;24.35;95.02;100677.53;1733023;81;22051;-86
2022/07/08 05:17:12;;;;;;;;;;;;;;;24.51;97.57;100674.95;1736379;82;20144;-85
2022/07/08 05:19:39;;;;;;;;;;;;;;;24.71;91.44;100676.28;1736967;81;20160;-85
2022/07/08 05:22:06;;;;;;;;;;;;;;;24.88;95.24;100677.98;1736710;81;20136;-85
2022/07/08 05:24:34;;;;;;;;;;;;;;;25.06;88.28;100673.83;1736349;82;20151;-87
2022/07/08 05:27:02;;;;;;;;;;;;;;;25.23;84.12;100677.36;1720145;82;21091;-86
2022/07/08 05:29:30;;;;;;;;;;;;;;;25.34;80.05;100678.84;1710941;82;20170;-86
2022/07/08 05:31:57;;;;;;;;;;;;;;;25.48;80.65;100677.47;1710869;82;20188;-86
2022/07/08 05:34:24;;;;;;;;;;;;;;;25.65;76.99;100679.94;1708074;83;20158;-86
2022/07/08 05:36:51;;;;;;;;;;;;;;;25.77;70.75;100681.41;1707688;84;20478;-86
2022/07/08 05:39:18;;;;;;;;;;;;;;;25.91;69.73;100680.01;1708206;84;21115;-86
2022/07/08 05:41:45;;;;;;;;;;;;;;;26.04;69.19;100682.57;1707580;84;20167;-86
2022/07/08 05:44:12;;;;;;;;;;;;;;;26.18;67.07;100681.99;1708030;84;20162;-87
2022/07/08 05:46:40;;;;;;;;;;;;;;;26.33;65.49;100687.52;1706804;83;20151;-86
2022/07/08 05:49:07;;;;;;;;;;;;;;;26.46;65.24;100684.71;1706497;84;20450;-87
2022/07/08 05:51:33;;;;;;;;;;;;;;;26.59;65.68;100681.11;1707604;84;21141;-87
2022/07/08 05:54:00;;;;;;;;;;;;;;;26.72;64.26;100682.30;1708530;82;20485;-86
2022/07/08 05:56:27;;;;;;;;;;;;;;;26.87;62.30;100681.17;1716748;82;20138;-85
2022/07/08 05:58:54;;;;;;;;;;;;;;;26.99;61.02;100678.05;1711723;83;20187;-88
2022/07/08 06:01:20;;;;;;;;;;;;;;;27.12;58.46;100677.61;1713516;82;20149;-87
2022/07/08 06:03:47;;;;;;;;;;;;;;;27.20;59.47;100674.63;1717956;82;21139;-86
2022/07/08 06:06:15;;;;;;;;;;;;;;;27.32;60.06;100676.83;1713834;82;20473;-86
2022/07/08 06:08:42;;;;;;;;;;;;;;;27.48;61.56;100672.72;1722699;82;20457;-88
2022/07/08 06:11:09;;;;;;;;;;;;;;;27.67;63.32;100672.17;1726161;82;20144;-86
2022/07/08 06:13:36;;;;;;;;;;;;;;;27.87;59.81;100675.05;1709687;83;20495;-86
2022/07/08 06:16:03;;;;;;;;;;;;;;;28.02;58.05;100666.60;1679657;84;21091;-87
2022/07/08 06:18:30;;;;;;;;;;;;;;;28.15;59.73;100670.42;1688924;84;20155;-86
2022/07/08 06:20:57;;;;;;;;;;;;;;;28.24;56.37;100665.55;1705540;84;20150;-86
2022/07/08 06:23:24;;;;;;;;;;;;;;;28.32;55.01;100667.05;1692982;83;20522;-86
2022/07/08 06:25:51;;;;;;;;;;;;;;;28.43;57.19;100670.27;1677737;84;20508;-88
2022/07/08 06:28:18;;;;;;;;;;;;;;;28.62;55.63;100666.10;1680069;84;21149;-87
2022/07/08 06:30:45;;;;;;;;;;;;;;;28.79;52.95;100671.06;1680363;84;20138;-88
2022/07/08 06:33:12;;;;;;;;;;;;;;;28.87;51.50;100675.77;1689989;83;20189;-87
2022/07/08 06:35:39;;;;;;;;;;;;;;;28.94;51.82;100670.58;1691895;83;20142;-87
2022/07/08 06:38:06;;;;;;;;;;;;;;;29.09;51.51;100671.39;1689873;84;20176;-87
2022/07/08 06:40:32;;;;;;;;;;;;;;;29.26;51.39;100676.83;1691829;83;21911;-86
2022/07/08 06:42:59;;;;;;;;;;;;;;;29.39;50.57;100677.62;1687957;83;20146;-87
2022/07/08 06:45:30;;;;;;;;;;;;;;;29.51;49.74;100677.05;1689263;84;20435;-86
2022/07/08 06:47:55;;;;;;;;;;;;;;;29.62;48.91;100675.88;1690614;83;20221;-87
2022/07/08 06:50:22;;;;;;;;;;;;;;;29.75;50.21;100676.39;1689066;84;20216;-87
2022/07/08 06:52:48;;;;;;;;;;;;;;;29.90;49.25;100683.06;1687530;84;21683;-87
2022/07/08 06:55:15;;;;;;;;;;;;;;;30.05;46.79;100686.56;1702261;84;20134;-87
2022/07/08 06:57:43;;;;;;;;;;;;;;;30.18;46.25;100684.89;1705049;84;20176;-87
2022/07/08 07:00:10;;;;;;;;;;;;;;;30.31;45.53;100688.31;1693133;83;20219;-89
2022/07/08 07:02:38;;;;;;;;;;;;;;;30.46;46.96;100676.95;1682636;83;20195;-87
2022/07/08 07:05:06;;;;;;;;;;;;;;;30.61;47.56;100679.09;1682882;83;21881;-87
2022/07/08 07:07:32;;;;;;;;;;;;;;;30.74;47.37;100673.34;1689397;83;20616;-88
2022/07/08 07:09:59;;;;;;;;;;;;;;;30.88;47.85;100666.27;1684877;83;20218;-89
2022/07/08 07:12:27;;;;;;;;;;;;;;;30.99;47.92;100670.69;1689360;84;20557;-89
2022/07/08 07:14:55;;;;;;;;;;;;;;;31.08;46.21;100663.80;1696464;82;20185;-90
2022/07/08 07:17:22;;;;;;;;;;;;;;;31.15;44.92;100665.00;1681618;83;21752;-92
2022/07/08 07:19:49;;;;;;;;;;;;;;;31.24;43.68;100672.07;1686634;83;20188;-90
2022/07/08 07:22:16;;;;;;;;;;;;;;;31.27;43.34;100660.27;1686632;83;20180;-91
2022/07/08 07:24:44;;;;;;;;;;;;;;;31.31;45.10;100656.55;1692784;83;20686;-86
2022/07/08 07:27:11;;;;;;;;;;;;;;;31.38;44.57;100657.15;1695878;83;20207;-90
2022/07/08 07:29:37;;;;;;;;;;;;;;;31.44;43.73;100646.74;1684545;85;21101;-90
2022/07/08 07:32:05;;;;;;;;;;;;;;;31.51;45.41;100653.78;1683575;85;20201;-88
2022/07/08 07:34:32;;;;;;;;;;;;;;;31.59;44.60;100652.78;1684292;85;20186;-88
2022/07/08 07:36:59;;;;;;;;;;;;;;;31.71;44.11;100647.80;1680913;83;20572;-89
2022/07/08 07:39:26;;;;;;;;;;;;;;;31.83;42.85;100650.33;1679382;84;20516;-88
2022/07/08 07:41:52;;;;;;;;;;;;;;;31.90;41.97;100652.26;1679593;84;21141;-88
2022/07/08 07:44:19;;;;;;;;;;;;;;;31.97;40.48;100650.70;1680062;83;20178;-89
2022/07/08 07:46:47;;;;;;;;;;;;;;;32.03;41.30;100649.11;1684282;84;20156;-87
2022/07/08 07:49:14;;;;;;;;;;;;;;;32.13;42.44;100637.59;1692172;83;20220;-89
2022/07/08 07:51:41;;;;;;;;;;;;;;;32.23;40.95;100641.73;1689216;83;20185;-88
2022/07/08 07:54:08;;;;;;;;;;;;;;;32.32;39.76;100636.69;1692551;83;21108;-88
2022/07/08 07:56:35;;;;;;;;;;;;;;;32.41;38.41;100639.13;1695110;83;20165;-88
2022/07/08 07:59:03;;;;;;;;;;;;;;;32.49;37.47;100637.05;1691975;83;20176;-87
2022/07/08 08:01:30;;;;;;;;;;;;;;;32.56;36.42;100638.95;1684609;84;20169;-88
2022/07/08 08:03:57;;;;;;;;;;;;;;;32.64;35.78;100632.23;1689912;83;20154;-88
2022/07/08 08:06:24;;;;;;;;;;;;;;;32.67;33.58;100635.77;1683706;84;20791;-88
2022/07/08 08:08:51;;;;;;;;;;;;;;;32.75;33.69;100630.39;1684906;83;20183;-88
2022/07/08 08:11:18;;;;;;;;;;;;;;;32.78;31.27;100628.00;1682337;84;20541;-88
2022/07/08 08:13:45;;;;;;;;;;;;;;;32.86;32.99;100629.39;1686945;83;20192;-88
2022/07/08 08:16:13;;;;;;;;;;;;;;;32.92;31.02;100628.33;1698777;83;20153;-87
2022/07/08 08:18:40;;;;;;;;;;;;;;;32.97;32.25;100631.02;1716622;82;21127;-91
2022/07/08 08:21:07;;;;;;;;;;;;;;;33.06;31.06;100622.42;1713252;83;20141;-88
2022/07/08 08:23:34;;;;;;;;;;;;;;;33.13;30.21;100626.49;1713523;83;20217;-87
2022/07/08 08:26:02;;;;;;;;;;;;;;;33.18;30.16;100627.05;1713318;83;20157;-88
2022/07/08 08:28:29;;;;;;;;;;;;;;;33.27;30.73;100628.14;1713281;83;20177;-88
2022/07/08 08:30:55;;;;;;;;;;;;;;;33.32;28.78;100626.82;1709125;83;20701;-88
2022/07/08 08:33:23;;;;;;;;;;;;;;;33.37;30.22;100622.52;1710523;83;20159;-89
2022/07/08 08:35:50;;;;;;;;;;;;;;;33.49;29.99;100621.70;1713383;83;20173;-87
2022/07/08 08:38:16;;;;;;;;;;;;;;;33.60;30.65;100621.98;1713702;82;20185;-88
2022/07/08 08:40:45;;;;;;;;;;;;;;;33.63;30.12;100621.43;1716266;82;20181;-90
2022/07/08 08:43:13;;;;;;;;;;;;;;;33.64;30.62;100619.01;1715562;82;21083;-90
2022/07/08 08:45:41;;;;;;;;;;;;;;;33.74;30.45;100625.48;1713991;81;20145;-88
2022/07/08 08:48:10;;;;;;;;;;;;;;;33.77;29.93;100619.00;1716190;82;20154;-89
2022/07/08 08:50:56;;;;;;;;;;;;;;;33.76;29.83;100613.88;1713514;83;20194;-88
2022/07/08 08:53:30;;;;;;;;;;;;;;;33.69;30.33;100610.66;1714463;83;20189;-89
2022/07/08 08:56:00;;;;;;;;;;;;;;;33.60;29.35;100607.67;1716578;82;21164;-89
2022/07/08 08:58:27;;;;;;;;;;;;;;;33.57;30.19;100609.58;1718479;82;20137;-88
2022/07/08 09:00:54;;;;;;;;;;;;;;;33.54;30.25;100605.50;1715220;82;20173;-88
2022/07/08 09:03:21;;;;;;;;;;;;;;;33.55;29.58;100607.69;1715411;83;20193;-88
2022/07/08 09:05:49;;;;;;;;;;;;;;;33.56;29.08;100600.66;1731536;82;20160;-87
2022/07/08 09:08:15;;;;;;;;;;;;;;;33.65;27.77;100599.03;1728730;82;21134;-88
2022/07/08 09:10:44;;;;;;;;;;;;;;;33.70;29.69;100594.70;1718000;82;20174;-88
2022/07/08 09:13:14;;;;;;;;;;;;;;;33.73;29.37;100600.91;1722043;82;20141;-87
2022/07/08 09:15:47;;;;;;;;;;;;;;;33.73;30.33;100591.47;1712828;82;20156;-88
2022/07/08 09:18:15;;;;;;;;;;;;;;;33.78;30.15;100598.20;1706916;82;20202;-89
2022/07/08 09:20:48;;;;;;;;;;;;;;;33.84;29.13;100595.78;1733972;82;21816;-88
2022/07/08 09:23:23;;;;;;;;;;;;;;;33.90;29.05;100597.42;1738905;82;20163;-88
2022/07/08 09:25:51;;;;;;;;;;;;;;;33.99;29.78;100595.52;1718275;82;20169;-90
2022/07/08 09:28:35;;;;;;;;;;;;;;;34.11;29.01;100591.95;1703481;82;20134;-89
2022/07/08 09:31:03;;;;;;;;;;;;;;;34.20;26.92;100592.22;1716433;82;20175;-89
2022/07/08 09:33:31;;;;;;;;;;;;;;;34.24;27.09;100590.05;1714521;83;21213;-90
2022/07/08 09:36:00;;;;;;;;;;;;;;;34.27;26.88;100596.23;1713074;83;20611;-87
2022/07/08 09:38:30;;;;;;;;;;;;;;;34.30;28.08;100596.22;1714240;82;20237;-87
2022/07/08 09:41:10;;;;;;;;;;;;;;;34.33;26.42;100594.88;1713485;83;20173;-88
2022/07/08 09:43:45;;;;;;;;;;;;;;;34.24;27.05;100595.45;1737551;82;20495;-87
2022/07/08 09:46:12;;;;;;;;;;;;;;;34.21;26.50;100587.88;1712979;83;21153;-88
2022/07/08 09:48:39;;;;;;;;;;;;;;;34.25;27.34;100581.38;1664345;85;20183;-90
2022/07/08 09:51:09;;;;;;;;;;;;;;;34.20;27.18;100580.06;1697903;83;20175;-90
2022/07/08 09:53:37;;;;;;;;;;;;;;;34.20;27.46;100592.22;1694743;84;20168;-89
2022/07/08 09:56:06;;;;;;;;;;;;;;;34.30;27.78;100585.41;1674783;83;20551;-90
2022/07/08 09:58:34;;;;;;;;;;;;;;;34.48;28.55;100579.16;1680451;85;21922;-88
2022/07/08 10:01:02;;;;;;;;;;;;;;;34.63;28.18;100579.64;1679767;83;20165;-89
2022/07/08 10:03:29;;;;;;;;;;;;;;;34.73;27.30;100578.23;1675045;84;20179;-90
2022/07/08 10:05:56;;;;;;;;;;;;;;;34.84;27.06;100582.48;1683656;84;20138;-90
2022/07/08 10:08:24;;;;;;;;;;;;;;;34.97;26.77;100576.23;1672008;84;20177;-89
2022/07/08 10:10:53;;;;;;;;;;;;;;;35.09;27.26;100578.03;1676413;85;21158;-88
2022/07/08 10:13:21;;;;;;;;;;;;;;;35.19;25.18;100575.25;1675245;84;20148;-88
2022/07/08 10:15:49;;;;;;;;;;;;;;;35.18;25.96;100574.98;1695543;84;20150;-89
2022/07/08 10:18:19;;;;;;;;;;;;;;;35.23;26.65;100575.49;1757880;81;20187;-88
2022/07/08 10:20:48;;;;;;;;;;;;;;;35.33;25.73;100569.19;1712254;83;20527;-91
2022/07/08 10:23:22;;;;;;;;;;;;;;;35.43;24.66;100564.25;1729109;82;21214;-89
2022/07/08 10:25:49;;;;;;;;;;;;;;;35.50;24.21;100568.26;1753357;80;20167;-87
2022/07/08 10:28:16;;;;;;;;;;;;;;;35.35;25.00;100564.30;1732968;82;20977;-90
2022/07/08 10:30:50;;;;;;;;;;;;;;;35.13;25.26;100572.33;1733030;82;20437;-88
2022/07/08 10:33:19;;;;;;;;;;;;;;;35.01;23.81;100565.10;1715750;82;20187;-90
2022/07/08 10:36:04;;;;;;;;;;;;;;;34.91;24.11;100566.78;1739263;82;21656;-90
2022/07/08 10:38:40;;;;;;;;;;;;;;;34.90;24.33;100565.72;1733270;82;20464;-88
2022/07/08 10:41:09;;;;;;;;;;;;;;;34.99;24.04;100563.22;1722792;82;20197;-91
2022/07/08 10:43:51;;;;;;;;;;;;;;;35.04;23.41;100553.17;1717334;82;20235;-89
2022/07/08 10:46:19;;;;;;;;;;;;;;;35.03;24.20;100554.25;1713986;83;20192;-89
2022/07/08 10:48:53;;;;;;;;;;;;;;;35.12;25.10;100547.72;1726177;82;21099;-88
2022/07/08 10:51:24;;;;;;;;;;;;;;;35.21;22.54;100545.20;1734284;82;20135;-88
2022/07/08 10:53:59;;;;;;;;;;;;;;;35.23;23.07;100551.94;1719168;82;20141;-88
2022/07/08 10:56:50;;;;;;;;;;;;;;;35.28;22.73;100544.88;1714539;82;20155;-88
2022/07/08 10:59:22;;;;;;;;;;;;;;;35.30;22.79;100544.86;1715217;82;20180;-89
2022/07/08 11:13:51;;;;;;;8.35;3.70;;;;;;;35.33;22.68;100536.19;1823190;77;22364;-89
2022/07/08 11:16:20;;;;;;;10.03;3.87;;;;;;;35.16;23.59;100539.28;1736615;82;21052;-89
2022/07/08 11:18:48;;;;;;;8.75;4.17;;;;;;;35.18;23.60;100534.41;1772257;80;21149;-90
2022/07/08 11:21:15;;;;;;;12.03;4.03;;;;;;;35.32;22.90;100530.51;1762281;80;20989;-89
2022/07/08 11:23:46;;;;;;;10.68;4.10;;;;;;;35.42;24.17;100533.69;1719999;82;21565;-88
2022/07/08 11:26:17;;;;;;;7.42;3.92;;;;;;;35.55;24.09;100528.16;1733988;80;21610;-90
2022/07/08 11:28:44;;;;;;;7.03;3.20;;;;;;;35.58;22.21;100526.77;1736361;81;20990;-89
2022/07/08 11:31:26;;;;;;;25.70;4.62;;;;;;;35.60;23.68;100523.23;1739661;82;21796;-89
2022/07/08 11:33:54;;;;;;;4.83;3.35;;;;;;;35.72;24.93;100521.48;1747089;81;21018;-91
2022/07/08 11:36:21;;;;;;;10.00;3.47;;;;;;;35.88;22.87;100522.94;1745817;81;21601;-92
2022/07/08 11:38:50;;;;;;;5.50;3.72;;;;;;;35.99;23.21;100518.23;1743279;81;21045;-88
2022/07/08 11:41:22;;;;;;;3.37;3.02;;;;;;;36.09;21.55;100519.47;1747409;81;21606;-89
2022/07/08 11:43:50;;;;;;;9.00;3.83;;;;;;;36.12;22.27;100510.73;1742470;81;21206;-89
2022/07/08 11:46:23;;;;;;;7.35;3.42;;;;;;;36.14;21.75;100510.44;1741233;81;21030;-88
2022/07/08 11:48:50;;;;;;;7.60;4.00;;;;;;;36.10;22.30;100510.78;1739161;81;21085;-89
2022/07/08 11:51:17;;;;;;;6.75;4.22;;;;;;;36.05;22.78;100513.56;1741914;81;21729;-91
2022/07/08 11:53:45;;;;;;;6.47;3.70;;;;;;;35.98;21.94;100511.20;1738013;82;21085;-90
2022/07/08 11:56:14;;;;;;;8.33;3.90;;;;;;;35.89;22.33;100506.13;1741474;80;21821;-88
2022/07/08 11:58:41;;;;;;;4.40;3.50;;;;;;;35.80;21.82;100510.82;1741871;80;21077;-89
2022/07/08 12:01:08;;;;;;;8.63;3.58;;;;;;;35.71;22.04;100497.65;1757088;80;21050;-90
2022/07/08 12:03:37;;;;;;;5.00;3.70;;;;;;;35.68;23.04;100503.66;1767468;80;21129;-92
2022/07/08 12:06:04;;;;;;;9.58;3.80;;;;;;;35.74;22.88;100497.61;1773459;80;21070;-88
2022/07/08 12:08:35;;;;;;;4.97;3.60;;;;;;;35.76;21.48;100499.50;1770296;80;21110;-89
2022/07/08 12:11:18;;;;;;;;;;;;;;;35.73;22.06;100495.47;1777551;80;21037;-89
2022/07/08 12:14:12;;;;;;;11.18;4.10;;;;;;;35.71;22.17;100492.80;1757561;80;20214;-88
2022/07/08 12:16:55;;;;;;;10.72;4.70;;;;;;;35.67;22.83;100493.36;1778725;80;21025;-90
2022/07/08 12:19:39;;;;;;;8.63;4.40;;;;;;;35.64;22.80;100492.59;1749242;80;22065;-89
2022/07/08 12:22:08;;;;;;;11.70;4.10;;;;;;;35.61;22.62;100485.59;1776958;80;21140;-89
2022/07/08 12:24:41;;;;;;;9.90;4.80;;;;;;;35.55;22.90;100483.48;1773772;80;21018;-89
2022/07/08 12:27:17;;;;;;;5.83;4.00;;;;;;;35.56;22.39;100481.58;1756072;81;21101;-89
2022/07/08 12:29:46;;;;;;;8.38;4.08;;;;;;;35.59;21.96;100476.95;1777488;80;21015;-88
2022/07/08 12:32:43;;;;;;;7.65;3.77;;;;;;;35.66;22.11;100483.63;1768122;80;21068;-88
2022/07/08 12:35:12;;;;;;;10.35;4.22;;;;;;;35.76;22.73;100482.72;1761310;80;21138;-90
2022/07/08 12:37:41;;;;;;;6.20;3.90;;;;;;;35.80;23.75;100479.67;1749461;81;22181;-90
2022/07/08 12:40:19;;;;;;;31.02;5.12;;;;;;;35.76;22.38;100483.25;1745025;81;21065;-89
2022/07/08 12:43:05;;;;;;;13.50;4.35;;;;;;;35.71;22.05;100476.55;1768016;81;21018;-89